createdAt,value
2023-03-02T00:00:00.100Z,0.00
2023-03-02T00:01:00.117Z,0.00
2023-03-02T00:02:00.157Z,0.00
2023-03-02T00:03:00.193Z,0.00
2023-03-02T00:04:00.136Z,0.00
2023-03-02T00:05:00.039Z,0.00
2023-03-02T00:06:00.035Z,0.00
2023-03-02T00:07:00.047Z,0.00
2023-03-02T00:08:00.267Z,0.00
2023-03-02T00:09:00.308Z,0.00
2023-03-02T00:09:59.972Z,0.00
2023-03-02T00:10:59.971Z,0.00
2023-03-02T00:11:59.950Z,0.00
2023-03-02T00:12:59.939Z,0.00
2023-03-02T00:13:59.938Z,0.00
2023-03-02T00:14:59.923Z,0.00
2023-03-02T00:15:59.961Z,0.00
2023-03-02T00:17:06.979Z,0.00
2023-03-02T00:18:06.889Z,0.00
2023-03-02T00:19:06.896Z,0.00
2023-03-02T00:20:07.878Z,0.00
2023-03-02T00:20:59.854Z,0.00
2023-03-02T00:21:59.858Z,0.00
2023-03-02T00:22:59.836Z,0.00
2023-03-02T00:23:59.855Z,0.00
2023-03-02T00:24:59.807Z,0.00
2023-03-02T00:25:59.807Z,0.00
2023-03-02T00:26:59.798Z,0.00
2023-03-02T00:27:59.796Z,0.00
2023-03-02T00:28:59.806Z,0.00
2023-03-02T00:29:59.747Z,0.00
2023-03-02T00:30:59.758Z,0.00
2023-03-02T00:31:59.759Z,0.00
2023-03-02T00:32:59.719Z,0.00
2023-03-02T00:33:59.723Z,0.00
2023-03-02T00:34:59.694Z,0.00
2023-03-02T00:35:59.730Z,0.00
2023-03-02T00:36:59.676Z,0.00
2023-03-02T00:37:59.665Z,0.00
2023-03-02T00:38:59.674Z,0.00
2023-03-02T00:39:59.668Z,0.00
2023-03-02T00:40:59.619Z,0.00
2023-03-02T00:41:59.969Z,0.00
2023-03-02T00:42:59.604Z,0.00
2023-03-02T00:43:59.596Z,0.00
2023-03-02T00:44:59.623Z,0.00
2023-03-02T00:45:59.572Z,0.00
2023-03-02T00:46:59.632Z,0.00
2023-03-02T00:47:59.544Z,0.00
2023-03-02T00:48:59.530Z,0.00
2023-03-02T00:49:59.521Z,0.00
2023-03-02T00:50:59.514Z,0.00
2023-03-02T00:51:59.523Z,0.00
2023-03-02T00:53:01.254Z,0.00
2023-03-02T00:53:59.463Z,0.00
2023-03-02T00:54:59.460Z,0.00
2023-03-02T00:55:59.464Z,0.00
2023-03-02T00:56:59.456Z,0.00
2023-03-02T00:57:59.713Z,0.00
2023-03-02T00:58:59.432Z,0.00
2023-03-02T00:59:59.405Z,0.00
2023-03-02T01:00:59.394Z,0.00
2023-03-02T01:01:59.501Z,0.00
2023-03-02T01:02:59.501Z,0.00
2023-03-02T01:03:59.383Z,0.00
2023-03-02T01:04:59.634Z,0.00
2023-03-02T01:05:59.346Z,0.00
2023-03-02T01:06:59.357Z,0.00
2023-03-02T01:07:59.327Z,0.00
2023-03-02T01:08:59.321Z,0.00
2023-03-02T01:09:59.611Z,0.00
2023-03-02T01:10:59.299Z,0.00
2023-03-02T01:11:59.349Z,0.00
2023-03-02T01:12:59.265Z,0.00
2023-03-02T01:13:59.281Z,0.00
2023-03-02T01:14:59.245Z,0.00
2023-03-02T01:15:59.582Z,0.00
2023-03-02T01:16:59.245Z,0.00
2023-03-02T01:17:59.198Z,0.00
2023-03-02T01:18:59.218Z,0.00
2023-03-02T01:19:59.180Z,0.00
2023-03-02T01:20:59.177Z,0.00
2023-03-02T01:21:59.215Z,0.00
2023-03-02T01:22:59.150Z,0.00
2023-03-02T01:23:59.159Z,0.00
2023-03-02T01:24:59.129Z,0.00
2023-03-02T01:25:59.123Z,0.00
2023-03-02T01:26:59.136Z,0.00
2023-03-02T01:27:59.090Z,0.00
2023-03-02T01:29:00.861Z,0.00
2023-03-02T01:29:59.078Z,0.00
2023-03-02T01:30:59.387Z,0.00
2023-03-02T01:31:59.204Z,0.00
2023-03-02T01:32:59.041Z,0.00
2023-03-02T01:33:59.039Z,0.00
2023-03-02T01:34:59.044Z,0.00
2023-03-02T01:35:59.068Z,0.00
2023-03-02T01:36:59.002Z,0.00
2023-03-02T01:37:59.009Z,0.00
2023-03-02T01:39:01.713Z,0.00
2023-03-02T01:39:58.965Z,0.00
2023-03-02T01:40:58.962Z,0.00
2023-03-02T01:42:01.705Z,0.00
2023-03-02T01:43:01.824Z,0.00
2023-03-02T01:43:58.947Z,0.00
2023-03-02T01:44:58.910Z,0.00
2023-03-02T01:45:59.249Z,0.00
2023-03-02T01:46:58.879Z,0.00
2023-03-02T01:47:58.880Z,0.00
2023-03-02T01:48:58.885Z,0.00
2023-03-02T01:49:59.118Z,0.00
2023-03-02T01:50:58.827Z,0.00
2023-03-02T01:52:05.854Z,0.00
2023-03-02T01:53:05.851Z,0.00
2023-03-02T01:54:07.117Z,0.00
2023-03-02T01:55:06.798Z,0.00
2023-03-02T01:56:06.792Z,0.00
2023-03-02T01:56:58.752Z,0.00
2023-03-02T01:57:58.806Z,0.00
2023-03-02T01:58:58.754Z,0.00
2023-03-02T01:59:58.730Z,0.00
2023-03-02T02:01:01.564Z,0.00
2023-03-02T02:01:58.763Z,0.00
2023-03-02T02:02:59.435Z,0.00
2023-03-02T02:03:58.781Z,0.00
2023-03-02T02:04:58.678Z,0.00
2023-03-02T02:05:59.030Z,0.00
2023-03-02T02:06:58.948Z,0.00
2023-03-02T02:07:58.668Z,0.00
2023-03-02T02:08:58.635Z,0.00
2023-03-02T02:09:58.628Z,0.00
2023-03-02T02:10:58.884Z,0.00
2023-03-02T02:11:58.641Z,0.00
2023-03-02T02:12:58.634Z,0.00
2023-03-02T02:13:58.613Z,0.00
2023-03-02T02:14:58.573Z,0.00
2023-03-02T02:15:58.566Z,0.00
2023-03-02T02:16:58.647Z,0.00
2023-03-02T02:17:58.579Z,0.00
2023-03-02T02:18:58.547Z,0.00
2023-03-02T02:19:58.504Z,0.00
2023-03-02T02:20:58.503Z,0.00
2023-03-02T02:21:58.522Z,0.00
2023-03-02T02:22:58.515Z,0.00
2023-03-02T02:23:58.486Z,0.00
2023-03-02T02:24:58.433Z,0.00
2023-03-02T02:25:58.445Z,0.00
2023-03-02T02:26:58.697Z,0.00
2023-03-02T02:27:58.463Z,0.00
2023-03-02T02:28:58.439Z,0.00
2023-03-02T02:29:58.406Z,0.00
2023-03-02T02:30:58.384Z,0.00
2023-03-02T02:31:58.524Z,0.00
2023-03-02T02:32:59.573Z,0.00
2023-03-02T02:33:58.401Z,0.00
2023-03-02T02:34:58.711Z,0.00
2023-03-02T02:35:58.394Z,0.00
2023-03-02T02:36:58.319Z,0.00
2023-03-02T02:37:58.304Z,0.00
2023-03-02T02:38:58.335Z,0.00
2023-03-02T02:40:01.012Z,0.00
2023-03-02T02:40:58.254Z,0.00
2023-03-02T02:41:58.276Z,0.00
2023-03-02T02:42:58.537Z,0.00
2023-03-02T02:43:58.273Z,0.00
2023-03-02T02:44:58.223Z,0.00
2023-03-02T02:45:58.340Z,0.00
2023-03-02T02:46:58.210Z,0.00
2023-03-02T02:47:58.211Z,0.00
2023-03-02T02:48:58.202Z,0.00
2023-03-02T02:49:58.163Z,0.00
2023-03-02T02:50:58.161Z,0.00
2023-03-02T02:51:58.136Z,0.00
2023-03-02T02:52:58.208Z,0.00
2023-03-02T02:53:58.497Z,0.00
2023-03-02T02:54:58.108Z,0.00
2023-03-02T02:55:58.101Z,0.00
2023-03-02T02:56:58.091Z,0.00
2023-03-02T02:57:58.087Z,0.00
2023-03-02T02:58:58.095Z,0.00
2023-03-02T02:59:58.064Z,0.00
2023-03-02T03:00:58.084Z,0.00
2023-03-02T03:01:58.342Z,0.00
2023-03-02T03:02:58.031Z,0.00
2023-03-02T03:03:58.059Z,0.00
2023-03-02T03:04:57.998Z,0.00
2023-03-02T03:05:58.015Z,0.00
2023-03-02T03:06:58.022Z,0.00
2023-03-02T03:07:58.251Z,0.00
2023-03-02T03:08:57.985Z,0.00
2023-03-02T03:09:58.015Z,0.00
2023-03-02T03:10:57.953Z,0.00
2023-03-02T03:11:58.300Z,0.00
2023-03-02T03:12:57.926Z,0.00
2023-03-02T03:13:57.915Z,0.00
2023-03-02T03:14:57.907Z,0.00
2023-03-02T03:15:57.864Z,0.00
2023-03-02T03:16:57.931Z,0.00
2023-03-02T03:17:57.890Z,0.00
2023-03-02T03:18:57.852Z,0.00
2023-03-02T03:19:57.820Z,0.00
2023-03-02T03:20:57.801Z,0.00
2023-03-02T03:21:57.809Z,0.00
2023-03-02T03:22:58.063Z,0.00
2023-03-02T03:23:57.788Z,0.00
2023-03-02T03:24:57.768Z,0.00
2023-03-02T03:25:57.762Z,0.00
2023-03-02T03:26:57.760Z,0.00
2023-03-02T03:27:57.737Z,0.00
2023-03-02T03:28:57.744Z,0.00
2023-03-02T03:30:04.751Z,0.00
2023-03-02T03:31:04.764Z,0.00
2023-03-02T03:32:05.050Z,0.00
2023-03-02T03:33:04.693Z,0.00
2023-03-02T03:33:57.685Z,0.00
2023-03-02T03:34:57.681Z,0.00
2023-03-02T03:35:57.731Z,0.00
2023-03-02T03:36:57.627Z,0.00
2023-03-02T03:37:57.671Z,0.00
2023-03-02T03:38:57.601Z,0.00
2023-03-02T03:39:57.656Z,0.00
2023-03-02T03:40:57.591Z,0.00
2023-03-02T03:41:57.585Z,0.00
2023-03-02T03:42:57.607Z,0.00
2023-03-02T03:43:57.557Z,0.00
2023-03-02T03:44:57.860Z,0.00
2023-03-02T03:45:57.864Z,0.00
2023-03-02T03:46:57.522Z,0.00
2023-03-02T03:47:57.528Z,0.00
2023-03-02T03:48:57.515Z,0.00
2023-03-02T03:49:57.510Z,0.00
2023-03-02T03:50:57.504Z,0.00
2023-03-02T03:51:57.475Z,0.00
2023-03-02T03:52:57.456Z,0.00
2023-03-02T03:53:57.494Z,0.00
2023-03-02T03:54:57.714Z,0.00
2023-03-02T03:55:57.413Z,0.00
2023-03-02T03:56:57.414Z,0.00
2023-03-02T03:57:57.404Z,0.00
2023-03-02T03:58:57.383Z,0.00
2023-03-02T03:59:57.401Z,0.00
2023-03-02T04:00:57.659Z,0.00
2023-03-02T04:01:57.430Z,0.00
2023-03-02T04:02:57.408Z,0.00
2023-03-02T04:03:57.337Z,0.00
2023-03-02T04:04:57.351Z,0.00
2023-03-02T04:05:57.322Z,0.00
2023-03-02T04:06:57.292Z,0.00
2023-03-02T04:07:57.332Z,0.00
2023-03-02T04:08:57.293Z,0.00
2023-03-02T04:09:57.311Z,0.00
2023-03-02T04:10:57.282Z,0.00
2023-03-02T04:11:57.257Z,0.00
2023-03-02T04:12:57.234Z,0.00
2023-03-02T04:13:57.225Z,0.00
2023-03-02T04:14:57.532Z,0.00
2023-03-02T04:15:57.226Z,0.00
2023-03-02T04:16:57.185Z,0.00
2023-03-02T04:17:57.189Z,0.00
2023-03-02T04:18:57.173Z,0.00
2023-03-02T04:19:57.193Z,0.00
2023-03-02T04:20:57.140Z,0.00
2023-03-02T04:21:57.138Z,0.00
2023-03-02T04:22:57.130Z,0.00
2023-03-02T04:23:57.185Z,0.00
2023-03-02T04:24:57.126Z,0.00
2023-03-02T04:25:57.115Z,0.00
2023-03-02T04:26:57.082Z,0.00
2023-03-02T04:27:57.086Z,0.00
2023-03-02T04:28:57.104Z,0.00
2023-03-02T04:29:57.088Z,0.00
2023-03-02T04:30:57.096Z,0.00
2023-03-02T04:31:57.092Z,0.00
2023-03-02T04:32:57.019Z,0.00
2023-03-02T04:33:57.024Z,0.00
2023-03-02T04:34:57.022Z,0.00
2023-03-02T04:35:57.056Z,0.00
2023-03-02T04:36:56.995Z,0.00
2023-03-02T04:37:57.005Z,0.00
2023-03-02T04:38:56.965Z,0.00
2023-03-02T04:39:56.965Z,0.00
2023-03-02T04:40:56.964Z,0.00
2023-03-02T04:41:56.924Z,0.00
2023-03-02T04:42:56.935Z,0.00
2023-03-02T04:43:56.911Z,0.00
2023-03-02T04:44:56.906Z,0.00
2023-03-02T04:45:56.953Z,0.00
2023-03-02T04:46:57.051Z,0.00
2023-03-02T04:47:56.910Z,0.00
2023-03-02T04:48:56.879Z,0.00
2023-03-02T04:49:56.920Z,0.00
2023-03-02T04:50:56.835Z,0.00
2023-03-02T04:51:57.104Z,0.00
2023-03-02T04:52:56.809Z,0.00
2023-03-02T04:53:56.810Z,0.00
2023-03-02T04:54:56.794Z,0.00
2023-03-02T04:55:58.811Z,0.00
2023-03-02T04:56:56.786Z,0.00
2023-03-02T04:57:56.769Z,0.00
2023-03-02T04:58:56.773Z,0.00
2023-03-02T04:59:56.771Z,0.00
2023-03-02T05:00:57.058Z,0.00
2023-03-02T05:01:56.743Z,0.00
2023-03-02T05:02:56.720Z,0.00
2023-03-02T05:03:56.684Z,0.00
2023-03-02T05:05:07.528Z,0.00
2023-03-02T05:06:07.527Z,0.00
2023-03-02T05:07:03.682Z,0.00
2023-03-02T05:08:04.174Z,0.00
2023-03-02T05:09:03.934Z,0.00
2023-03-02T05:09:56.608Z,0.00
2023-03-02T05:10:56.616Z,0.00
2023-03-02T05:11:56.650Z,0.00
2023-03-02T05:12:56.575Z,0.00
2023-03-02T05:13:56.591Z,0.00
2023-03-02T05:14:56.591Z,0.00
2023-03-02T05:15:56.554Z,0.00
2023-03-02T05:16:56.565Z,0.00
2023-03-02T05:17:56.537Z,0.00
2023-03-02T05:18:56.530Z,0.00
2023-03-02T05:19:56.523Z,0.00
2023-03-02T05:20:56.508Z,0.00
2023-03-02T05:21:56.515Z,0.00
2023-03-02T05:22:56.788Z,0.00
2023-03-02T05:23:56.473Z,0.00
2023-03-02T05:24:56.471Z,0.00
2023-03-02T05:25:56.456Z,0.00
2023-03-02T05:26:56.452Z,0.00
2023-03-02T05:27:57.687Z,0.00
2023-03-02T05:29:01.283Z,0.00
2023-03-02T05:29:56.803Z,0.00
2023-03-02T05:30:56.426Z,0.00
2023-03-02T05:31:56.905Z,0.00
2023-03-02T05:32:56.362Z,0.00
2023-03-02T05:33:57.302Z,0.00
2023-03-02T05:34:56.391Z,0.00
2023-03-02T05:35:56.437Z,0.00
2023-03-02T05:36:56.364Z,0.00
2023-03-02T05:37:56.648Z,0.00
2023-03-02T05:38:56.357Z,0.00
2023-03-02T05:39:56.273Z,0.00
2023-03-02T05:40:56.292Z,0.00
2023-03-02T05:41:56.287Z,0.00
2023-03-02T05:42:56.628Z,0.00
2023-03-02T05:43:56.520Z,4.00
2023-03-02T05:44:56.272Z,0.00
2023-03-02T05:45:59.032Z,0.00
2023-03-02T05:46:56.219Z,4.00
2023-03-02T05:47:56.212Z,0.00
2023-03-02T05:48:56.523Z,4.00
2023-03-02T05:49:56.452Z,4.00
2023-03-02T05:50:56.202Z,4.00
2023-03-02T05:51:56.166Z,4.00
2023-03-02T05:52:58.004Z,8.00
2023-03-02T05:53:56.162Z,8.00
2023-03-02T05:54:58.496Z,8.00
2023-03-02T05:55:56.153Z,12.00
2023-03-02T05:56:56.152Z,16.00
2023-03-02T05:57:58.920Z,20.00
2023-03-02T05:58:56.327Z,24.00
2023-03-02T05:59:56.139Z,24.00
2023-03-02T06:00:56.097Z,28.00
2023-03-02T06:01:56.171Z,36.00
2023-03-02T06:02:56.154Z,44.00
2023-03-02T06:03:56.081Z,52.00
2023-03-02T06:04:57.879Z,60.00
2023-03-02T06:05:56.337Z,68.00
2023-03-02T06:06:56.715Z,80.00
2023-03-02T06:07:56.813Z,92.00
2023-03-02T06:08:56.013Z,108.00
2023-03-02T06:09:55.983Z,120.00
2023-03-02T06:10:56.257Z,132.00
2023-03-02T06:11:56.242Z,148.00
2023-03-02T06:12:56.166Z,168.00
2023-03-02T06:13:55.938Z,188.00
2023-03-02T06:14:56.845Z,212.00
2023-03-02T06:15:55.922Z,232.00
2023-03-02T06:16:57.088Z,252.00
2023-03-02T06:18:00.707Z,280.00
2023-03-02T06:18:56.244Z,308.00
2023-03-02T06:19:56.264Z,332.00
2023-03-02T06:20:55.859Z,364.00
2023-03-02T06:21:55.832Z,392.00
2023-03-02T06:22:55.837Z,420.00
2023-03-02T06:23:56.111Z,456.00
2023-03-02T06:24:55.796Z,488.00
2023-03-02T06:25:55.792Z,520.00
2023-03-02T06:26:55.777Z,556.00
2023-03-02T06:27:55.792Z,592.00
2023-03-02T06:28:55.744Z,628.00
2023-03-02T06:29:55.759Z,664.00
2023-03-02T06:30:55.737Z,700.00
2023-03-02T06:31:55.829Z,740.00
2023-03-02T06:32:55.730Z,780.00
2023-03-02T06:33:55.997Z,820.00
2023-03-02T06:34:55.756Z,856.00
2023-03-02T06:35:55.867Z,892.00
2023-03-02T06:36:55.698Z,928.00
2023-03-02T06:37:55.706Z,968.00
2023-03-02T06:38:55.656Z,1008.00
2023-03-02T06:39:55.628Z,1048.00
2023-03-02T06:41:02.628Z,1088.00
2023-03-02T06:42:02.617Z,1124.00
2023-03-02T06:43:04.377Z,1160.00
2023-03-02T06:44:03.094Z,1200.00
2023-03-02T06:44:55.589Z,1240.00
2023-03-02T06:45:55.612Z,1280.00
2023-03-02T06:46:55.557Z,1316.00
2023-03-02T06:47:55.554Z,1352.00
2023-03-02T06:48:55.535Z,1392.00
2023-03-02T06:49:55.827Z,1424.00
2023-03-02T06:50:55.535Z,1464.00
2023-03-02T06:51:58.272Z,1500.00
2023-03-02T06:52:55.500Z,1536.00
2023-03-02T06:53:58.278Z,1572.00
2023-03-02T06:54:55.486Z,1608.00
2023-03-02T06:55:55.463Z,1644.00
2023-03-02T06:56:55.448Z,1680.00
2023-03-02T06:57:55.430Z,1720.00
2023-03-02T06:58:55.426Z,1756.00
2023-03-02T06:59:55.436Z,1796.00
2023-03-02T07:00:55.433Z,1828.00
2023-03-02T07:01:55.396Z,1868.00
2023-03-02T07:02:55.420Z,1908.00
2023-03-02T07:03:55.420Z,1952.00
2023-03-02T07:04:55.383Z,1988.00
2023-03-02T07:05:55.373Z,2028.00
2023-03-02T07:06:55.386Z,2064.00
2023-03-02T07:07:55.302Z,2092.00
2023-03-02T07:08:55.329Z,2132.00
2023-03-02T07:09:55.321Z,2168.00
2023-03-02T07:10:55.298Z,2208.00
2023-03-02T07:11:55.294Z,2244.00
2023-03-02T07:12:55.272Z,2288.00
2023-03-02T07:13:55.267Z,2332.00
2023-03-02T07:14:56.008Z,2368.00
2023-03-02T07:15:55.250Z,2400.00
2023-03-02T07:16:55.285Z,2428.00
2023-03-02T07:17:55.220Z,2452.00
2023-03-02T07:18:55.217Z,2484.00
2023-03-02T07:19:55.200Z,2520.00
2023-03-02T07:20:55.206Z,2564.00
2023-03-02T07:21:55.161Z,2576.00
2023-03-02T07:22:55.162Z,2588.00
2023-03-02T07:23:55.150Z,2596.00
2023-03-02T07:24:55.196Z,2600.00
2023-03-02T07:25:55.131Z,2608.00
2023-03-02T07:26:55.107Z,2656.00
2023-03-02T07:27:55.120Z,2696.00
2023-03-02T07:28:55.109Z,2760.00
2023-03-02T07:29:55.087Z,2800.00
2023-03-02T07:30:55.092Z,2828.00
2023-03-02T07:31:55.374Z,2848.00
2023-03-02T07:32:55.066Z,2892.00
2023-03-02T07:33:55.311Z,2956.00
2023-03-02T07:34:55.068Z,3020.00
2023-03-02T07:35:55.377Z,3084.00
2023-03-02T07:36:55.006Z,3128.00
2023-03-02T07:37:55.040Z,3172.00
2023-03-02T07:38:55.044Z,3216.00
2023-03-02T07:39:55.017Z,3244.00
2023-03-02T07:40:54.963Z,3252.00
2023-03-02T07:41:54.942Z,3268.00
2023-03-02T07:42:55.164Z,3304.00
2023-03-02T07:43:54.953Z,3344.00
2023-03-02T07:44:54.980Z,3344.00
2023-03-02T07:45:54.922Z,3348.00
2023-03-02T07:46:54.966Z,3368.00
2023-03-02T07:47:54.872Z,3396.00
2023-03-02T07:48:54.922Z,3424.00
2023-03-02T07:49:54.883Z,3348.00
2023-03-02T07:50:54.862Z,3480.00
2023-03-02T07:51:55.204Z,3500.00
2023-03-02T07:52:54.863Z,3508.00
2023-03-02T07:53:54.801Z,3504.00
2023-03-02T07:54:54.855Z,3480.00
2023-03-02T07:55:54.869Z,3472.00
2023-03-02T07:56:54.798Z,3484.00
2023-03-02T07:57:54.763Z,3492.00
2023-03-02T07:58:54.757Z,3512.00
2023-03-02T07:59:55.598Z,3524.00
2023-03-02T08:00:54.767Z,3544.00
2023-03-02T08:01:54.778Z,3536.00
2023-03-02T08:02:54.775Z,3580.00
2023-03-02T08:03:55.621Z,3596.00
2023-03-02T08:04:54.729Z,3612.00
2023-03-02T08:05:55.088Z,3628.00
2023-03-02T08:06:54.673Z,3640.00
2023-03-02T08:07:54.690Z,3648.00
2023-03-02T08:08:56.433Z,3660.00
2023-03-02T08:09:54.662Z,3668.00
2023-03-02T08:10:54.618Z,3700.00
2023-03-02T08:11:54.610Z,3708.00
2023-03-02T08:12:54.593Z,3712.00
2023-03-02T08:13:54.569Z,3724.00
2023-03-02T08:14:54.626Z,3736.00
2023-03-02T08:15:54.906Z,3748.00
2023-03-02T08:16:54.544Z,3764.00
2023-03-02T08:17:54.524Z,3768.00
2023-03-02T08:18:54.540Z,3784.00
2023-03-02T08:19:54.519Z,3796.00
2023-03-02T08:20:54.530Z,3804.00
2023-03-02T08:21:54.498Z,3816.00
2023-03-02T08:22:54.492Z,3836.00
2023-03-02T08:23:54.537Z,3840.00
2023-03-02T08:24:54.523Z,3860.00
2023-03-02T08:25:54.827Z,3884.00
2023-03-02T08:26:54.458Z,3908.00
2023-03-02T08:27:54.431Z,3944.00
2023-03-02T08:28:54.415Z,3928.00
2023-03-02T08:29:54.708Z,3932.00
2023-03-02T08:30:54.386Z,3928.00
2023-03-02T08:31:54.495Z,3940.00
2023-03-02T08:32:54.367Z,3956.00
2023-03-02T08:33:54.364Z,3964.00
2023-03-02T08:34:54.362Z,3976.00
2023-03-02T08:35:54.364Z,3976.00
2023-03-02T08:36:54.316Z,3988.00
2023-03-02T08:37:54.311Z,4000.00
2023-03-02T08:38:54.317Z,4012.00
2023-03-02T08:39:54.327Z,4020.00
2023-03-02T08:40:54.308Z,4032.00
2023-03-02T08:41:54.276Z,4044.00
2023-03-02T08:42:54.257Z,4052.00
2023-03-02T08:43:54.316Z,4064.00
2023-03-02T08:44:54.266Z,4076.00
2023-03-02T08:45:54.322Z,4080.00
2023-03-02T08:46:54.239Z,4088.00
2023-03-02T08:47:54.198Z,4100.00
2023-03-02T08:48:54.198Z,4112.00
2023-03-02T08:49:54.183Z,4120.00
2023-03-02T08:50:54.182Z,4128.00
2023-03-02T08:51:54.153Z,4144.00
2023-03-02T08:52:54.139Z,4156.00
2023-03-02T08:53:54.111Z,4156.00
2023-03-02T08:54:54.182Z,4172.00
2023-03-02T08:55:54.121Z,4188.00
2023-03-02T08:56:54.092Z,4192.00
2023-03-02T08:57:54.363Z,4208.00
2023-03-02T08:58:54.091Z,4216.00
2023-03-02T08:59:54.081Z,4224.00
2023-03-02T09:00:54.119Z,4240.00
2023-03-02T09:01:54.039Z,4236.00
2023-03-02T09:02:54.022Z,4504.00
2023-03-02T09:03:54.024Z,4248.00
2023-03-02T09:04:54.061Z,4256.00
2023-03-02T09:05:53.990Z,4272.00
2023-03-02T09:06:53.981Z,4288.00
2023-03-02T09:07:53.966Z,4316.00
2023-03-02T09:08:53.958Z,4356.00
2023-03-02T09:09:53.970Z,4372.00
2023-03-02T09:10:53.933Z,4412.00
2023-03-02T09:11:53.932Z,4404.00
2023-03-02T09:12:53.910Z,4408.00
2023-03-02T09:13:53.898Z,4408.00
2023-03-02T09:14:53.898Z,4400.00
2023-03-02T09:15:53.938Z,4420.00
2023-03-02T09:16:54.518Z,4380.00
2023-03-02T09:17:53.862Z,4380.00
2023-03-02T09:18:53.863Z,4384.00
2023-03-02T09:19:53.838Z,4720.00
2023-03-02T09:20:53.863Z,4380.00
2023-03-02T09:21:54.102Z,4392.00
2023-03-02T09:22:53.805Z,4400.00
2023-03-02T09:23:53.811Z,4484.00
2023-03-02T09:24:53.795Z,4420.00
2023-03-02T09:25:53.803Z,4428.00
2023-03-02T09:26:53.794Z,4432.00
2023-03-02T09:27:53.753Z,4440.00
2023-03-02T09:28:53.752Z,4444.00
2023-03-02T09:29:53.764Z,4452.00
2023-03-02T09:30:53.755Z,4464.00
2023-03-02T09:31:54.112Z,4468.00
2023-03-02T09:32:53.811Z,4476.00
2023-03-02T09:33:53.685Z,4480.00
2023-03-02T09:34:53.688Z,4488.00
2023-03-02T09:35:53.690Z,4500.00
2023-03-02T09:36:53.700Z,4528.00
2023-03-02T09:37:53.643Z,4512.00
2023-03-02T09:38:53.644Z,4532.00
2023-03-02T09:39:53.695Z,4540.00
2023-03-02T09:40:53.624Z,4616.00
2023-03-02T09:41:53.596Z,4608.00
2023-03-02T09:42:53.573Z,4564.00
2023-03-02T09:43:53.577Z,4640.00
2023-03-02T09:44:53.576Z,4560.00
2023-03-02T09:45:53.635Z,4936.00
2023-03-02T09:46:53.544Z,4592.00
2023-03-02T09:47:53.525Z,4596.00
2023-03-02T09:48:53.526Z,4612.00
2023-03-02T09:50:01.548Z,4624.00
2023-03-02T09:51:00.540Z,4752.00
2023-03-02T09:52:01.509Z,4656.00
2023-03-02T09:53:00.481Z,4660.00
2023-03-02T09:54:00.535Z,4716.00
2023-03-02T09:54:53.472Z,4652.00
2023-03-02T09:55:53.463Z,4692.00
2023-03-02T09:56:53.420Z,4692.00
2023-03-02T09:57:53.420Z,4704.00
2023-03-02T09:58:53.438Z,4712.00
2023-03-02T09:59:53.439Z,4712.00
2023-03-02T10:00:53.397Z,4724.00
2023-03-02T10:01:53.369Z,4728.00
2023-03-02T10:02:53.419Z,4740.00
2023-03-02T10:03:53.445Z,4808.00
2023-03-02T10:04:53.448Z,4852.00
2023-03-02T10:05:53.349Z,4764.00
2023-03-02T10:06:53.587Z,4788.00
2023-03-02T10:07:53.308Z,4892.00
2023-03-02T10:08:53.291Z,4804.00
2023-03-02T10:09:53.260Z,4812.00
2023-03-02T10:10:53.283Z,4824.00
2023-03-02T10:11:53.248Z,4928.00
2023-03-02T10:12:53.245Z,4864.00
2023-03-02T10:13:53.318Z,4864.00
2023-03-02T10:14:53.228Z,4864.00
2023-03-02T10:15:53.338Z,4940.00
2023-03-02T10:16:53.491Z,4956.00
2023-03-02T10:17:53.186Z,5028.00
2023-03-02T10:18:53.282Z,5064.00
2023-03-02T10:19:53.171Z,5048.00
2023-03-02T10:20:54.000Z,4972.00
2023-03-02T10:21:53.238Z,4996.00
2023-03-02T10:22:54.992Z,5084.00
2023-03-02T10:23:53.113Z,5036.00
2023-03-02T10:24:53.109Z,5068.00
2023-03-02T10:25:53.119Z,5128.00
2023-03-02T10:26:53.077Z,5136.00
2023-03-02T10:27:53.086Z,5124.00
2023-03-02T10:28:53.059Z,5020.00
2023-03-02T10:29:53.050Z,5036.00
2023-03-02T10:30:53.086Z,5056.00
2023-03-02T10:31:53.109Z,4988.00
2023-03-02T10:32:53.023Z,5004.00
2023-03-02T10:33:53.018Z,5076.00
2023-03-02T10:34:52.988Z,5224.00
2023-03-02T10:35:53.022Z,5096.00
2023-03-02T10:36:52.968Z,5236.00
2023-03-02T10:37:52.987Z,5152.00
2023-03-02T10:38:52.941Z,5144.00
2023-03-02T10:39:52.951Z,5180.00
2023-03-02T10:40:52.944Z,5216.00
2023-03-02T10:41:52.954Z,5288.00
2023-03-02T10:42:52.960Z,5208.00
2023-03-02T10:43:52.896Z,5252.00
2023-03-02T10:44:52.867Z,5244.00
2023-03-02T10:45:52.964Z,5228.00
2023-03-02T10:46:52.853Z,5192.00
2023-03-02T10:47:52.839Z,5260.00
2023-03-02T10:48:52.838Z,5268.00
2023-03-02T10:49:52.860Z,5192.00
2023-03-02T10:50:52.843Z,5272.00
2023-03-02T10:51:52.803Z,5296.00
2023-03-02T10:53:00.133Z,5292.00
2023-03-02T10:53:53.781Z,5332.00
2023-03-02T10:54:52.774Z,5420.00
2023-03-02T10:55:52.781Z,5388.00
2023-03-02T10:56:52.747Z,5176.00
2023-03-02T10:57:52.727Z,5184.00
2023-03-02T10:58:54.246Z,5172.00
2023-03-02T10:59:52.718Z,5192.00
2023-03-02T11:00:52.708Z,5180.00
2023-03-02T11:01:52.714Z,5200.00
2023-03-02T11:02:52.688Z,5228.00
2023-03-02T11:03:56.571Z,5224.00
2023-03-02T11:04:52.768Z,5236.00
2023-03-02T11:05:52.669Z,5204.00
2023-03-02T11:06:54.404Z,5200.00
2023-03-02T11:07:55.361Z,5296.00
2023-03-02T11:08:52.620Z,5296.00
2023-03-02T11:09:52.588Z,5304.00
2023-03-02T11:10:52.587Z,5320.00
2023-03-02T11:11:52.587Z,5332.00
2023-03-02T11:12:52.563Z,5276.00
2023-03-02T11:13:52.563Z,5260.00
2023-03-02T11:14:52.543Z,5244.00
2023-03-02T11:15:52.613Z,5240.00
2023-03-02T11:16:52.520Z,5248.00
2023-03-02T11:17:52.508Z,5268.00
2023-03-02T11:18:52.520Z,5292.00
2023-03-02T11:19:52.478Z,5268.00
2023-03-02T11:20:52.482Z,5296.00
2023-03-02T11:21:52.461Z,5276.00
2023-03-02T11:22:59.450Z,5196.00
2023-03-02T11:24:00.799Z,5284.00
2023-03-02T11:24:59.737Z,5264.00
2023-03-02T11:26:00.475Z,5260.00
2023-03-02T11:26:52.389Z,5272.00
2023-03-02T11:27:59.454Z,5280.00
2023-03-02T11:28:52.383Z,5276.00
2023-03-02T11:29:52.377Z,5284.00
2023-03-02T11:30:52.407Z,5292.00
2023-03-02T11:31:52.509Z,5292.00
2023-03-02T11:32:52.368Z,5288.00
2023-03-02T11:33:53.261Z,5292.00
2023-03-02T11:34:52.317Z,5296.00
2023-03-02T11:35:52.506Z,5296.00
2023-03-02T11:36:52.356Z,5304.00
2023-03-02T11:37:52.308Z,5308.00
2023-03-02T11:38:53.229Z,5328.00
2023-03-02T11:39:55.835Z,5304.00
2023-03-02T11:40:53.090Z,5316.00
2023-03-02T11:41:52.539Z,5332.00
2023-03-02T11:42:52.233Z,5340.00
2023-03-02T11:43:52.206Z,5336.00
2023-03-02T11:44:52.271Z,5348.00
2023-03-02T11:45:52.188Z,5344.00
2023-03-02T11:46:52.275Z,5348.00
2023-03-02T11:48:01.209Z,5352.00
2023-03-02T11:48:53.185Z,5340.00
2023-03-02T11:49:52.138Z,5348.00
2023-03-02T11:50:52.561Z,5480.00
2023-03-02T11:51:58.064Z,5356.00
2023-03-02T11:52:53.421Z,5372.00
2023-03-02T11:53:52.173Z,5388.00
2023-03-02T11:54:52.127Z,5396.00
2023-03-02T11:55:53.843Z,5456.00
2023-03-02T11:56:52.061Z,5368.00
2023-03-02T11:57:52.092Z,5396.00
2023-03-02T11:58:52.051Z,5400.00
2023-03-02T11:59:52.104Z,5404.00
2023-03-02T12:00:52.011Z,5384.00
2023-03-02T12:01:52.040Z,5388.00
2023-03-02T12:02:52.010Z,5388.00
2023-03-02T12:03:51.982Z,5372.00
2023-03-02T12:04:51.974Z,5376.00
2023-03-02T12:05:51.973Z,5380.00
2023-03-02T12:06:52.010Z,5368.00
2023-03-02T12:07:51.952Z,5368.00
2023-03-02T12:08:52.036Z,5368.00
2023-03-02T12:09:51.922Z,5372.00
2023-03-02T12:10:51.953Z,5384.00
2023-03-02T12:11:51.892Z,5384.00
2023-03-02T12:12:51.875Z,5380.00
2023-03-02T12:13:51.860Z,5380.00
2023-03-02T12:14:51.850Z,5368.00
2023-03-02T12:15:51.852Z,5368.00
2023-03-02T12:16:51.887Z,5336.00
2023-03-02T12:17:51.855Z,5352.00
2023-03-02T12:18:51.804Z,5352.00
2023-03-02T12:19:51.808Z,5368.00
2023-03-02T12:20:51.798Z,5348.00
2023-03-02T12:21:52.685Z,5300.00
2023-03-02T12:22:51.782Z,5296.00
2023-03-02T12:23:51.770Z,5288.00
2023-03-02T12:24:51.737Z,5300.00
2023-03-02T12:25:52.043Z,5272.00
2023-03-02T12:26:51.748Z,5264.00
2023-03-02T12:27:51.734Z,5264.00
2023-03-02T12:28:53.154Z,5256.00
2023-03-02T12:29:51.695Z,5248.00
2023-03-02T12:30:51.680Z,5244.00
2023-03-02T12:31:51.739Z,5224.00
2023-03-02T12:32:51.721Z,5232.00
2023-03-02T12:33:51.638Z,5200.00
2023-03-02T12:34:51.625Z,5204.00
2023-03-02T12:35:51.620Z,5184.00
2023-03-02T12:36:51.679Z,5032.00
2023-03-02T12:37:51.611Z,5028.00
2023-03-02T12:38:51.588Z,5016.00